createdAt,value
2023-01-02T00:01:53.375Z,100069.53
2023-01-02T00:04:22.474Z,100066.06
2023-01-02T00:06:50.799Z,100051.44
2023-01-02T00:09:18.988Z,100071.56
2023-01-02T00:11:47.655Z,100065.03
2023-01-02T00:14:19.190Z,100064.69
2023-01-02T00:16:47.336Z,100074.03
2023-01-02T00:19:15.774Z,100014.66
2023-01-02T00:21:44.330Z,100071.28
2023-01-02T00:24:13.360Z,100073.81
2023-01-02T00:26:41.794Z,100043.28
2023-01-02T00:29:10.573Z,100068.75
2023-01-02T00:31:39.205Z,100064.75
2023-01-02T00:34:07.794Z,100075.84
2023-01-02T00:36:37.561Z,100071.25
2023-01-02T00:39:05.978Z,100071.97
2023-01-02T00:41:34.268Z,100028.47
2023-01-02T00:44:02.983Z,100086.41
2023-01-02T00:46:31.840Z,100078.47
2023-01-02T00:49:00.334Z,100081.47
2023-01-02T00:51:28.569Z,100088.03
2023-01-02T00:53:57.687Z,100082.63
2023-01-02T00:56:25.817Z,100091.75
2023-01-02T00:58:53.818Z,100088.56
2023-01-02T01:01:22.214Z,100080.72
2023-01-02T01:03:50.535Z,100087.88
2023-01-02T01:06:18.632Z,100084.78
2023-01-02T01:08:46.749Z,100087.06
2023-01-02T01:11:17.666Z,100085.41
2023-01-02T01:13:45.955Z,100081.25
2023-01-02T01:16:17.797Z,100076.81
2023-01-02T01:18:47.112Z,100089.94
2023-01-02T01:21:20.619Z,100077.38
2023-01-02T01:23:54.535Z,100078.56
2023-01-02T01:26:23.988Z,100035.47
2023-01-02T01:28:56.454Z,99990.44
2023-01-02T01:31:25.381Z,100032.84
2023-01-02T01:33:54.265Z,100074.38
2023-01-02T01:36:25.096Z,100068.97
2023-01-02T01:38:54.132Z,100063.59
2023-01-02T01:41:26.178Z,100061.69
2023-01-02T01:43:56.276Z,100011.44
2023-01-02T01:46:44.281Z,100045.69
2023-01-02T01:49:24.095Z,100029.47
2023-01-02T01:52:13.200Z,100066.09
2023-01-02T01:54:49.993Z,100009.72
2023-01-02T01:57:35.604Z,100069.38
2023-01-02T02:00:05.394Z,100068.28
2023-01-02T02:02:35.133Z,100073.19
2023-01-02T02:05:06.304Z,100033.00
2023-01-02T02:07:40.659Z,100057.00
2023-01-02T02:10:11.825Z,100041.31
2023-01-02T02:12:39.990Z,100045.34
2023-01-02T02:15:14.794Z,100057.69
2023-01-02T02:18:15.391Z,100019.16
2023-01-02T02:21:08.046Z,100038.50
2023-01-02T02:24:06.227Z,100065.56
2023-01-02T02:26:53.578Z,100071.38
2023-01-02T02:30:12.171Z,100076.22
2023-01-02T02:33:12.360Z,100056.31
2023-01-02T02:35:49.495Z,100053.47
2023-01-02T02:38:48.200Z,100042.56
2023-01-02T02:41:38.985Z,100047.38
2023-01-02T02:44:32.393Z,100048.59
2023-01-02T02:47:06.110Z,100005.81
2023-01-02T02:49:37.332Z,100066.41
2023-01-02T02:52:17.552Z,100080.50
2023-01-02T02:55:01.535Z,100070.31
2023-01-02T02:57:31.652Z,100020.72
2023-01-02T03:00:00.058Z,100064.25
2023-01-02T03:02:28.088Z,100058.84
2023-01-02T03:05:08.623Z,100046.69
2023-01-02T03:08:11.618Z,100058.03
2023-01-02T03:11:12.828Z,100060.81
2023-01-02T03:14:05.437Z,100068.00
2023-01-02T03:16:46.798Z,100063.56
2023-01-02T03:19:26.869Z,100062.72
2023-01-02T03:22:22.140Z,100031.84
2023-01-02T03:24:55.507Z,100047.13
2023-01-02T03:27:30.187Z,100050.41
2023-01-02T03:30:15.138Z,100045.38
2023-01-02T03:32:59.896Z,100046.13
2023-01-02T03:35:39.888Z,100044.47
2023-01-02T03:38:15.616Z,100045.00
2023-01-02T03:40:56.919Z,100025.03
2023-01-02T03:43:31.026Z,100038.91
2023-01-02T03:46:18.874Z,99863.97
2023-01-02T03:49:13.278Z,100017.72
2023-01-02T03:51:42.008Z,100025.59
2023-01-02T03:54:10.918Z,99978.00
2023-01-02T03:57:08.842Z,100021.03
2023-01-02T04:00:29.151Z,100016.56
2023-01-02T04:03:22.287Z,100014.63
2023-01-02T04:05:59.937Z,99966.91
2023-01-02T04:08:48.034Z,100003.22
2023-01-02T04:11:19.845Z,99999.22
2023-01-02T04:13:52.108Z,99954.47
2023-01-02T04:16:25.753Z,100001.50
2023-01-02T04:19:33.762Z,99961.47
2023-01-02T04:22:07.600Z,99992.25
2023-01-02T04:24:42.662Z,99996.81
2023-01-02T04:27:35.434Z,99960.16
2023-01-02T04:30:03.679Z,100001.88
2023-01-02T04:32:41.863Z,99982.25
2023-01-02T04:35:17.832Z,99990.38
2023-01-02T04:37:48.139Z,99957.50
2023-01-02T04:40:28.957Z,100001.06
2023-01-02T04:42:57.244Z,100002.63
2023-01-02T04:45:25.232Z,99954.66
2023-01-02T04:47:53.122Z,100004.66
2023-01-02T04:50:21.395Z,100004.03
2023-01-02T04:52:49.510Z,99976.50
2023-01-02T04:55:17.569Z,100017.19
2023-01-02T04:57:45.548Z,100016.97
2023-01-02T05:00:14.013Z,100015.28
2023-01-02T05:02:42.048Z,100009.56
2023-01-02T05:05:11.089Z,100007.25
2023-01-02T05:07:40.073Z,99971.06
2023-01-02T05:10:09.836Z,100014.72
2023-01-02T05:12:39.492Z,100021.28
2023-01-02T05:15:10.085Z,100012.19
2023-01-02T05:17:40.900Z,99970.03
2023-01-02T05:20:12.630Z,100025.16
2023-01-02T05:23:00.935Z,100010.53
2023-01-02T05:25:33.651Z,99967.47
2023-01-02T05:28:03.192Z,99988.97
2023-01-02T05:30:31.114Z,100015.88
2023-01-02T05:32:59.179Z,100013.88
2023-01-02T05:35:32.552Z,100016.97
2023-01-02T05:38:02.059Z,100020.13
2023-01-02T05:40:30.153Z,100026.38
2023-01-02T05:42:59.225Z,100016.75
2023-01-02T05:45:27.409Z,99990.00
2023-01-02T05:47:55.523Z,99993.72
2023-01-02T05:50:23.480Z,100041.91
2023-01-02T05:52:51.371Z,100050.47
2023-01-02T05:55:19.363Z,100044.22
2023-01-02T05:57:47.191Z,100021.13
2023-01-02T06:00:16.711Z,100041.59
2023-01-02T06:02:48.339Z,100048.44
2023-01-02T06:05:16.964Z,100045.09
2023-01-02T06:07:44.881Z,100005.06
2023-01-02T06:10:12.866Z,100050.38
2023-01-02T06:12:40.813Z,100046.00
2023-01-02T06:15:10.074Z,100044.31
2023-01-02T06:17:38.323Z,100043.38
2023-01-02T06:20:07.070Z,100051.56
2023-01-02T06:22:35.928Z,99984.97
2023-01-02T06:25:04.254Z,100018.69
2023-01-02T06:27:33.050Z,100062.56
2023-01-02T06:30:01.027Z,100060.78
2023-01-02T06:32:29.701Z,100071.25
2023-01-02T06:34:57.743Z,100056.88
2023-01-02T06:37:25.562Z,100019.41
2023-01-02T06:39:53.682Z,100066.50
2023-01-02T06:42:21.620Z,100059.34
2023-01-02T06:44:49.562Z,100054.41
2023-01-02T06:47:18.014Z,100062.31
2023-01-02T06:49:45.878Z,100011.56
2023-01-02T06:52:13.796Z,100066.16
2023-01-02T06:54:41.937Z,100074.28
2023-01-02T06:57:12.627Z,100038.00
2023-01-02T06:59:40.637Z,100059.41
2023-01-02T07:02:12.804Z,100024.78
2023-01-02T07:04:41.150Z,100023.19
2023-01-02T07:07:09.638Z,100060.13
2023-01-02T07:09:37.917Z,99902.31
2023-01-02T07:12:06.011Z,100072.22
2023-01-02T07:14:33.955Z,100052.97
2023-01-02T07:17:02.223Z,100022.50
2023-01-02T07:19:30.139Z,100056.19
2023-01-02T07:21:58.009Z,100058.38
2023-01-02T07:24:26.265Z,100061.75
2023-01-02T07:26:54.281Z,100053.06
2023-01-02T07:29:22.280Z,100052.91
2023-01-02T07:31:50.386Z,100007.69
2023-01-02T07:34:18.396Z,100048.34
2023-01-02T07:36:46.680Z,99990.69
2023-01-02T07:39:14.798Z,100037.91
2023-01-02T07:41:43.660Z,100035.28
2023-01-02T07:44:15.775Z,100033.84
2023-01-02T07:46:43.718Z,99989.13
2023-01-02T07:49:13.007Z,100049.31
2023-01-02T07:51:41.151Z,100039.78
2023-01-02T07:54:11.872Z,100001.56
2023-01-02T07:56:40.077Z,100049.56
2023-01-02T07:59:10.729Z,99998.41
2023-01-02T08:01:38.711Z,100048.84
2023-01-02T08:04:06.689Z,100057.41
2023-01-02T08:06:34.872Z,100054.75
2023-01-02T08:09:03.011Z,100013.63
2023-01-02T08:11:31.075Z,100047.38
2023-01-02T08:13:59.153Z,100033.66
2023-01-02T08:16:27.187Z,100043.50
2023-01-02T08:18:56.657Z,100033.88
2023-01-02T08:21:26.972Z,100034.19
2023-01-02T08:23:54.811Z,100028.88
2023-01-02T08:26:24.151Z,100020.53
2023-01-02T08:28:52.430Z,100019.25
2023-01-02T08:31:21.963Z,100005.53
2023-01-02T08:33:50.064Z,100021.16
2023-01-02T08:36:20.047Z,99971.19
2023-01-02T08:38:48.229Z,99961.63
2023-01-02T08:41:33.960Z,100009.72
2023-01-02T08:44:02.159Z,99965.13
2023-01-02T08:46:38.395Z,100006.03
2023-01-02T08:49:12.407Z,99958.72
2023-01-02T08:51:40.624Z,99994.16
2023-01-02T08:54:08.665Z,99960.25
2023-01-02T08:56:37.820Z,99966.38
2023-01-02T08:59:10.253Z,99939.34
2023-01-02T09:01:39.376Z,99961.69
2023-01-02T09:04:12.406Z,99961.06
2023-01-02T09:06:43.123Z,99972.19
2023-01-02T09:09:13.784Z,99917.34
2023-01-02T09:11:51.163Z,99951.94
2023-01-02T09:14:22.145Z,99876.59
2023-01-02T09:16:51.860Z,99964.31
2023-01-02T09:19:19.957Z,99957.84
2023-01-02T09:21:48.093Z,99918.50
2023-01-02T09:24:16.295Z,99950.88
2023-01-02T09:26:44.658Z,99964.59
2023-01-02T09:29:14.193Z,99919.03
2023-01-02T09:31:42.376Z,99921.28
2023-01-02T09:34:10.782Z,99917.06
2023-01-02T09:36:39.655Z,99955.78
2023-01-02T09:39:10.287Z,99946.38
2023-01-02T09:41:43.819Z,99944.25
2023-01-02T09:44:22.410Z,99900.94
2023-01-02T09:47:03.354Z,99910.59
2023-01-02T09:49:40.314Z,99913.41
2023-01-02T09:52:14.444Z,99921.94
2023-01-02T09:54:43.201Z,99927.69
2023-01-02T09:57:29.252Z,99925.13
2023-01-02T10:00:17.108Z,99931.00
2023-01-02T10:03:23.754Z,99922.56
2023-01-02T10:06:26.866Z,99916.66
2023-01-02T10:09:18.123Z,99871.19
2023-01-02T10:12:01.348Z,99907.81
2023-01-02T10:14:54.031Z,99894.88
2023-01-02T10:17:24.277Z,99863.19
2023-01-02T10:20:28.390Z,99882.41
2023-01-02T10:23:22.835Z,99886.03
2023-01-02T10:26:01.290Z,99889.97
2023-01-02T10:28:57.942Z,99862.19
2023-01-02T10:31:38.899Z,99839.91
2023-01-02T10:34:18.450Z,99853.19
2023-01-02T10:36:48.856Z,99854.88
2023-01-02T10:39:28.221Z,99877.69
2023-01-02T10:41:59.954Z,99834.50
2023-01-02T10:44:40.171Z,99858.09
2023-01-02T10:47:38.637Z,99742.09
2023-01-02T10:50:27.002Z,99869.22
2023-01-02T10:53:29.014Z,99870.88
2023-01-02T10:56:01.315Z,99857.81
2023-01-02T10:58:33.104Z,99811.25
2023-01-02T11:01:27.599Z,99842.69
2023-01-02T11:03:58.908Z,99855.44
2023-01-02T11:06:38.839Z,99854.31
2023-01-02T11:09:38.306Z,99794.06
2023-01-02T11:12:13.352Z,99807.81
2023-01-02T11:14:42.085Z,99829.19
2023-01-02T11:17:22.577Z,99843.16
2023-01-02T11:19:57.010Z,99763.97
2023-01-02T11:22:37.379Z,99830.66
2023-01-02T11:25:13.342Z,99837.44
2023-01-02T11:27:44.658Z,99831.09
2023-01-02T11:30:43.107Z,99831.78
2023-01-02T11:33:24.963Z,99821.31
2023-01-02T11:35:57.557Z,99814.09
2023-01-02T11:38:45.045Z,99821.47
2023-01-02T11:41:49.499Z,99815.00
2023-01-02T11:44:48.000Z,99814.78
2023-01-02T11:47:16.838Z,99809.44
2023-01-02T11:49:48.904Z,99777.88
2023-01-02T11:52:26.586Z,99806.06
2023-01-02T11:55:22.855Z,99733.84
2023-01-02T11:57:56.949Z,99750.47
2023-01-02T12:00:31.690Z,99775.56
2023-01-02T12:03:18.160Z,99784.19
2023-01-02T12:06:14.104Z,99785.41
2023-01-02T12:08:59.671Z,99790.41
2023-01-02T12:12:02.127Z,99782.56
2023-01-02T12:15:10.981Z,99767.78
2023-01-02T12:18:13.830Z,99781.53
2023-01-02T12:21:02.586Z,99656.97
2023-01-02T12:24:15.622Z,99735.00
2023-01-02T12:27:02.140Z,99773.66
2023-01-02T12:30:00.741Z,99771.00
2023-01-02T12:33:03.939Z,99766.63
2023-01-02T12:36:07.921Z,99719.69
2023-01-02T12:39:30.314Z,99751.56
2023-01-02T12:42:18.655Z,99711.06
2023-01-02T12:44:56.125Z,99747.94
2023-01-02T12:47:42.458Z,99746.97
2023-01-02T12:50:46.900Z,99685.09
2023-01-02T12:54:18.624Z,99759.69
2023-01-02T12:57:06.416Z,99719.03
2023-01-02T12:59:57.379Z,99742.63
2023-01-02T13:03:21.820Z,99742.41
2023-01-02T13:06:45.767Z,99738.63
2023-01-02T13:09:28.684Z,99689.03
2023-01-02T13:12:16.281Z,99735.28
2023-01-02T13:15:10.383Z,99623.13
2023-01-02T13:17:50.796Z,99678.25
2023-01-02T13:20:34.862Z,99720.09
2023-01-02T13:23:47.053Z,99707.22
2023-01-02T13:26:25.083Z,99674.69
2023-01-02T13:29:19.313Z,99729.31
2023-01-02T13:31:55.550Z,99710.63
2023-01-02T13:34:31.382Z,99717.72
2023-01-02T13:37:02.857Z,99671.59
2023-01-02T13:39:42.169Z,99711.91
2023-01-02T13:42:54.488Z,99666.78
2023-01-02T13:45:29.606Z,99675.84
2023-01-02T13:48:04.902Z,99705.06
2023-01-02T13:50:36.847Z,99667.69
2023-01-02T13:53:10.739Z,99692.03
2023-01-02T13:55:41.903Z,99700.06
2023-01-02T13:58:18.373Z,99700.38
2023-01-02T14:00:55.324Z,99696.00
2023-01-02T14:03:24.465Z,99697.81
2023-01-02T14:06:01.580Z,99700.44
2023-01-02T14:08:32.240Z,99696.88
2023-01-02T14:11:07.507Z,99700.50
2023-01-02T14:13:46.061Z,99703.13
2023-01-02T14:16:44.791Z,99689.50
2023-01-02T14:19:15.736Z,99687.63
2023-01-02T14:21:55.052Z,99646.19
2023-01-02T14:24:50.731Z,99638.50
2023-01-02T14:27:27.616Z,99673.78
2023-01-02T14:30:05.811Z,99665.75
2023-01-02T14:32:44.416Z,99625.00
2023-01-02T14:35:15.814Z,99664.16
2023-01-02T14:37:51.890Z,99590.28
2023-01-02T14:40:22.851Z,99668.34
2023-01-02T14:43:31.735Z,99672.91
2023-01-02T14:46:23.579Z,99672.38
2023-01-02T14:49:25.559Z,99668.59
2023-01-02T14:52:08.789Z,99630.22
2023-01-02T14:54:56.425Z,99670.38
2023-01-02T14:57:35.090Z,99678.06
2023-01-02T15:00:18.083Z,99664.91
2023-01-02T15:02:49.852Z,99679.91
2023-01-02T15:05:27.119Z,99640.66
2023-01-02T15:07:59.551Z,99678.75
2023-01-02T15:10:27.968Z,99614.47
2023-01-02T15:13:10.884Z,99686.44
2023-01-02T15:15:43.442Z,99662.16
2023-01-02T15:18:31.624Z,99649.78
2023-01-02T15:21:10.649Z,99692.47
2023-01-02T15:23:48.178Z,99685.38
2023-01-02T15:26:34.969Z,99693.81
2023-01-02T15:29:07.270Z,99694.00
2023-01-02T15:31:39.951Z,99697.91
2023-01-02T15:34:10.977Z,99701.34
2023-01-02T15:36:42.018Z,99697.25
2023-01-02T15:39:19.987Z,99684.16
2023-01-02T15:41:53.033Z,99683.31
2023-01-02T15:44:50.078Z,99654.97
2023-01-02T15:47:27.366Z,99706.66
2023-01-02T15:49:57.958Z,99643.16
2023-01-02T15:52:31.331Z,99692.25
2023-01-02T15:55:00.732Z,99693.34
2023-01-02T15:57:32.136Z,99688.06
2023-01-02T16:00:01.538Z,99647.78
2023-01-02T16:02:43.529Z,99681.00
2023-01-02T16:05:16.334Z,99656.78
2023-01-02T16:07:55.692Z,99674.84
2023-01-02T16:10:28.312Z,99699.44
2023-01-02T16:13:41.801Z,99692.31
2023-01-02T16:16:16.009Z,99698.47
2023-01-02T16:18:50.997Z,99647.97
2023-01-02T16:21:20.634Z,99659.19
2023-01-02T16:23:55.231Z,99697.06
2023-01-02T16:26:38.269Z,99697.63
2023-01-02T16:29:14.682Z,99661.81
2023-01-02T16:32:02.710Z,99706.88
2023-01-02T16:34:36.802Z,99703.66
2023-01-02T16:37:17.214Z,99711.03
2023-01-02T16:39:49.852Z,99714.66
2023-01-02T16:42:41.212Z,99709.47
2023-01-02T16:45:12.124Z,99712.00
2023-01-02T16:47:44.257Z,99712.69
2023-01-02T16:50:18.895Z,99708.38
2023-01-02T16:52:47.618Z,99692.97
2023-01-02T16:55:23.881Z,99653.34
2023-01-02T16:57:52.887Z,99645.63
2023-01-02T17:00:23.022Z,99679.56
2023-01-02T17:02:51.077Z,99647.00
2023-01-02T17:05:32.440Z,99645.63
2023-01-02T17:08:00.430Z,99693.34
2023-01-02T17:10:29.011Z,99640.22
2023-01-02T17:12:57.148Z,99695.06
2023-01-02T17:15:25.205Z,99688.63
2023-01-02T17:17:53.127Z,99695.66
2023-01-02T17:20:21.606Z,99647.28
2023-01-02T17:22:49.640Z,99684.50
2023-01-02T17:25:18.709Z,99686.19
2023-01-02T17:27:47.606Z,99642.25
2023-01-02T17:30:16.582Z,99680.44
2023-01-02T17:32:45.113Z,99670.38
2023-01-02T17:35:13.569Z,99637.91
2023-01-02T17:37:42.075Z,99627.28
2023-01-02T17:40:12.493Z,99682.53
2023-01-02T17:42:40.954Z,99680.59
2023-01-02T17:45:10.854Z,99668.00
2023-01-02T17:47:59.923Z,99670.25
2023-01-02T17:50:28.332Z,99627.13
2023-01-02T17:52:56.516Z,99669.97
2023-01-02T17:55:24.473Z,99661.00
2023-01-02T17:57:52.962Z,99670.78
2023-01-02T18:00:23.599Z,99676.53
2023-01-02T18:02:53.008Z,99643.38
2023-01-02T18:05:22.212Z,99667.19
2023-01-02T18:07:50.564Z,99672.91
2023-01-02T18:10:20.830Z,99629.50
2023-01-02T18:12:50.381Z,99657.34
2023-01-02T18:15:22.040Z,99643.22
2023-01-02T18:17:50.316Z,99667.56
2023-01-02T18:20:23.234Z,99649.78
2023-01-02T18:22:51.559Z,99651.75
2023-01-02T18:25:25.042Z,99633.72
2023-01-02T18:28:01.517Z,99641.13
2023-01-02T18:30:30.373Z,99644.19
2023-01-02T18:33:29.957Z,99641.69
2023-01-02T18:36:03.013Z,99642.38
2023-01-02T18:38:39.764Z,99653.84
2023-01-02T18:41:28.388Z,99651.63
2023-01-02T18:44:25.198Z,99654.25
2023-01-02T18:47:05.025Z,99648.81
2023-01-02T18:49:43.183Z,99626.28
2023-01-02T18:52:11.912Z,99645.59
2023-01-02T18:54:51.984Z,99637.50
2023-01-02T18:57:23.166Z,99646.44
2023-01-02T18:59:52.586Z,99648.91
2023-01-02T19:02:39.277Z,99653.84
2023-01-02T19:05:40.135Z,99607.09
2023-01-02T19:08:37.291Z,99566.22
2023-01-02T19:11:46.758Z,99597.41
2023-01-02T19:14:24.293Z,99634.25
2023-01-02T19:17:21.737Z,99648.91
2023-01-02T19:19:50.461Z,99654.38
2023-01-02T19:22:23.116Z,99618.97
2023-01-02T19:24:51.888Z,99664.63
2023-01-02T19:27:35.058Z,99609.84
2023-01-02T19:30:32.266Z,99657.31
2023-01-02T19:33:01.124Z,99646.97
2023-01-02T19:35:35.721Z,99656.59
2023-01-02T19:38:28.313Z,99608.88
2023-01-02T19:40:57.527Z,99640.81
2023-01-02T19:43:26.185Z,99590.53
2023-01-02T19:45:55.519Z,99647.50
2023-01-02T19:48:24.220Z,99655.63
2023-01-02T19:50:52.693Z,99644.56
2023-01-02T19:53:21.121Z,99609.69
2023-01-02T19:55:49.910Z,99644.97
2023-01-02T19:58:18.744Z,99650.16
2023-01-02T20:00:47.057Z,99605.19
2023-01-02T20:03:16.411Z,99655.28
2023-01-02T20:05:45.847Z,99651.81
2023-01-02T20:08:14.402Z,99663.38
2023-01-02T20:10:42.998Z,99663.13
2023-01-02T20:13:11.024Z,99653.88
2023-01-02T20:15:39.961Z,99614.94
2023-01-02T20:18:09.282Z,99657.91
2023-01-02T20:20:38.925Z,99664.72
2023-01-02T20:23:12.878Z,99668.91
2023-01-02T20:25:41.880Z,99678.81
2023-01-02T20:28:10.548Z,99681.59
2023-01-02T20:30:40.946Z,99678.81
2023-01-02T20:33:10.255Z,99687.19
2023-01-02T20:35:38.568Z,99666.88
2023-01-02T20:38:06.886Z,99665.41
2023-01-02T20:40:36.609Z,99683.56
2023-01-02T20:43:04.947Z,99673.63
2023-01-02T20:45:33.309Z,99670.72
2023-01-02T20:48:01.924Z,99667.34
2023-01-02T20:50:30.416Z,99663.66
2023-01-02T20:52:59.355Z,99669.25
2023-01-02T20:55:30.952Z,99665.75
2023-01-02T20:57:59.881Z,99661.41
2023-01-02T21:00:29.030Z,99629.81
2023-01-02T21:02:58.533Z,99607.91
2023-01-02T21:05:28.183Z,99547.78
2023-01-02T21:07:57.460Z,99640.63
2023-01-02T21:10:26.256Z,99649.22
2023-01-02T21:13:08.100Z,99646.25
2023-01-02T21:15:46.870Z,99646.66
2023-01-02T21:18:23.999Z,99647.75
2023-01-02T21:20:59.210Z,99647.16
2023-01-02T21:23:30.760Z,99623.25
2023-01-02T21:26:00.747Z,99639.84
2023-01-02T21:28:30.186Z,99602.53
2023-01-02T21:30:58.721Z,99606.97
2023-01-02T21:33:29.615Z,99658.19
2023-01-02T21:36:01.192Z,99669.38
2023-01-02T21:38:30.927Z,99676.41
2023-01-02T21:41:19.913Z,99684.38
2023-01-02T21:43:50.078Z,99681.38
2023-01-02T21:46:18.975Z,99621.53
2023-01-02T21:48:48.006Z,99665.50
2023-01-02T21:51:16.780Z,99629.84
2023-01-02T21:53:45.666Z,99669.97
2023-01-02T21:56:14.257Z,99664.09
2023-01-02T21:58:42.713Z,99605.22
2023-01-02T22:01:11.259Z,99665.78
2023-01-02T22:03:39.507Z,99666.75
2023-01-02T22:06:10.021Z,99676.84
2023-01-02T22:08:38.438Z,99667.84
2023-01-02T22:11:25.782Z,99683.41
2023-01-02T22:13:54.148Z,99684.81
2023-01-02T22:16:22.464Z,99700.47
2023-01-02T22:18:51.482Z,99689.41
2023-01-02T22:21:20.496Z,99681.56
2023-01-02T22:23:48.669Z,99685.31
2023-01-02T22:26:17.826Z,99651.63
2023-01-02T22:28:46.604Z,99684.31
2023-01-02T22:31:15.384Z,99681.41
2023-01-02T22:33:43.702Z,99682.47
2023-01-02T22:36:12.048Z,99635.25
2023-01-02T22:39:02.336Z,99676.44
2023-01-02T22:41:33.484Z,99672.25
2023-01-02T22:44:04.577Z,99680.06
2023-01-02T22:46:41.960Z,99672.38
2023-01-02T22:49:19.693Z,99670.81
2023-01-02T22:52:06.379Z,99686.25
2023-01-02T22:54:34.959Z,99643.94
2023-01-02T22:57:10.434Z,99699.97
2023-01-02T22:59:41.311Z,99684.06
2023-01-02T23:02:19.186Z,99681.41
2023-01-02T23:04:48.106Z,99614.34
2023-01-02T23:07:24.442Z,99640.56
2023-01-02T23:09:52.975Z,99667.25
2023-01-02T23:12:21.319Z,99685.66
2023-01-02T23:14:50.144Z,99689.41
2023-01-02T23:17:37.947Z,99690.16
2023-01-02T23:20:12.389Z,99683.06
2023-01-02T23:22:40.585Z,99686.69
2023-01-02T23:25:10.368Z,99658.19
2023-01-02T23:27:38.783Z,99704.00
2023-01-02T23:30:07.640Z,99670.81
2023-01-02T23:32:36.181Z,99671.31
2023-01-02T23:35:05.422Z,99710.75
2023-01-02T23:37:33.640Z,99709.69
2023-01-02T23:40:02.388Z,99701.00
2023-01-02T23:42:30.564Z,99660.38
2023-01-02T23:44:59.795Z,99700.91
2023-01-02T23:47:28.273Z,99715.94
2023-01-02T23:49:57.098Z,99720.75
2023-01-02T23:52:25.193Z,99714.72
2023-01-02T23:54:54.104Z,99719.31
2023-01-02T23:57:22.562Z,99713.06
2023-01-02T23:59:50.795Z,99721.00
